createdAt,value
2018-12-27T00:01:10.796Z,98426.88
2018-12-27T00:06:30.435Z,98429.53
2018-12-27T00:11:49.885Z,98425.71
2018-12-27T00:17:09.199Z,98419.67
2018-12-27T00:22:28.213Z,98432.48
2018-12-27T00:27:48.108Z,98438.78
2018-12-27T00:33:08.411Z,98452.50
2018-12-27T00:38:28.743Z,98462.01
2018-12-27T00:43:47.992Z,98454.16
2018-12-27T00:49:07.205Z,98464.66
2018-12-27T00:54:27.817Z,98456.09
2018-12-27T00:59:47.100Z,98474.20
2018-12-27T01:05:06.843Z,98478.13
2018-12-27T01:10:26.793Z,98473.17
2018-12-27T01:15:46.669Z,98482.97
2018-12-27T01:21:05.692Z,98483.39
2018-12-27T01:26:25.103Z,98478.28
2018-12-27T01:31:50.625Z,98475.37
2018-12-27T01:37:05.072Z,98475.72
2018-12-27T01:42:24.416Z,98483.57
2018-12-27T01:47:44.137Z,98493.47
2018-12-27T01:53:03.856Z,98486.99
2018-12-27T01:58:23.452Z,98487.57
2018-12-27T02:03:43.369Z,98480.36
2018-12-27T02:09:03.675Z,98492.72
2018-12-27T02:14:24.048Z,98493.07
2018-12-27T02:19:43.770Z,98486.83
2018-12-27T02:25:03.275Z,98493.76
2018-12-27T02:30:23.134Z,98486.67
2018-12-27T02:35:42.788Z,98488.58
2018-12-27T02:41:02.916Z,98485.40
2018-12-27T02:46:23.889Z,98474.78
2018-12-27T02:51:44.261Z,98474.65
2018-12-27T02:57:03.405Z,98471.25
2018-12-27T03:02:22.595Z,98470.19
2018-12-27T03:07:41.716Z,98467.58
2018-12-27T03:13:01.127Z,98457.67
2018-12-27T03:18:20.094Z,98460.38
2018-12-27T03:23:39.449Z,98462.19
2018-12-27T03:28:58.676Z,98461.72
2018-12-27T03:34:18.043Z,98456.32
2018-12-27T03:39:37.706Z,98467.73
2018-12-27T03:44:57.321Z,98463.41
2018-12-27T03:50:16.686Z,98453.69
2018-12-27T03:55:35.928Z,98460.53
2018-12-27T04:00:56.614Z,98453.61
2018-12-27T04:06:16.038Z,98452.38
2018-12-27T04:11:35.543Z,98448.12
2018-12-27T04:16:54.817Z,98445.75
2018-12-27T04:22:14.096Z,98440.78
2018-12-27T04:27:33.777Z,98434.58
2018-12-27T04:32:53.124Z,98428.47
2018-12-27T04:38:15.921Z,98423.20
2018-12-27T04:43:36.094Z,98427.42
2018-12-27T04:48:55.206Z,98418.61
2018-12-27T04:54:14.949Z,98423.58
2018-12-27T04:59:34.659Z,98417.79
2018-12-27T05:04:55.406Z,98423.80
2018-12-27T05:10:14.619Z,98423.14
2018-12-27T05:15:34.182Z,98418.31
2018-12-27T05:20:53.543Z,98417.38
2018-12-27T05:26:14.158Z,98411.73
2018-12-27T05:31:34.469Z,98417.22
2018-12-27T05:36:55.219Z,98407.30
2018-12-27T05:42:14.684Z,98414.63
2018-12-27T05:47:34.646Z,98406.66
2018-12-27T05:52:54.277Z,98403.81
2018-12-27T05:58:14.295Z,98415.54
2018-12-27T06:03:33.734Z,98410.65
2018-12-27T06:08:53.578Z,98405.07
2018-12-27T06:14:13.544Z,98405.34
2018-12-27T06:19:34.118Z,98404.87
2018-12-27T06:24:54.037Z,98405.12
2018-12-27T06:30:13.417Z,98411.78
2018-12-27T06:35:32.847Z,98414.66
2018-12-27T06:40:52.122Z,98429.78
2018-12-27T06:46:11.415Z,98431.71
2018-12-27T06:51:30.476Z,98443.50
2018-12-27T06:56:49.764Z,98434.10
2018-12-27T07:02:09.142Z,98415.94
2018-12-27T07:07:29.048Z,98411.98
2018-12-27T07:12:49.435Z,98407.04
2018-12-27T07:18:10.925Z,98403.06
2018-12-27T07:23:35.509Z,98405.69
2018-12-27T07:28:56.144Z,98391.14
2018-12-27T07:34:15.109Z,98399.63
2018-12-27T07:39:34.742Z,98396.57
2018-12-27T07:44:54.069Z,98384.39
2018-12-27T07:50:14.028Z,98384.86
2018-12-27T07:55:33.831Z,98373.66
2018-12-27T08:00:53.104Z,98368.48
2018-12-27T08:06:12.933Z,98377.61
2018-12-27T08:11:32.934Z,98371.19
2018-12-27T08:16:53.701Z,98369.66
2018-12-27T08:22:12.757Z,98366.51
2018-12-27T08:27:32.912Z,98363.86
2018-12-27T08:32:53.552Z,98357.98
2018-12-27T08:38:13.374Z,98364.38
2018-12-27T08:43:32.908Z,98361.08
2018-12-27T08:48:53.153Z,98360.84
2018-12-27T08:54:14.402Z,98365.25
2018-12-27T08:59:34.758Z,98363.10
2018-12-27T09:04:55.415Z,98353.69
2018-12-27T09:10:16.133Z,98370.30
2018-12-27T09:15:36.505Z,98369.80
2018-12-27T09:20:57.144Z,98368.01
2018-12-27T09:26:16.485Z,98363.20
2018-12-27T09:31:36.939Z,98365.19
2018-12-27T09:36:56.065Z,98366.87
2018-12-27T09:42:15.349Z,98356.81
2018-12-27T09:47:34.641Z,98356.81
2018-12-27T09:52:53.919Z,98361.22
2018-12-27T09:58:15.336Z,98361.77
2018-12-27T10:03:35.404Z,98345.44
2018-12-27T10:08:54.631Z,98343.59
2018-12-27T10:14:14.383Z,98337.08
2018-12-27T10:19:34.125Z,98330.03
2018-12-27T10:24:54.329Z,98322.45
2018-12-27T10:30:14.573Z,98312.38
2018-12-27T10:35:40.940Z,98321.89
2018-12-27T10:40:53.791Z,98305.02
2018-12-27T10:46:12.896Z,98292.48
2018-12-27T10:51:33.164Z,98287.81
2018-12-27T10:56:52.420Z,98276.39
2018-12-27T11:02:12.705Z,98255.98
2018-12-27T11:07:32.742Z,98235.28
2018-12-27T11:12:51.807Z,98230.09
2018-12-27T11:18:11.135Z,98213.24
2018-12-27T11:23:30.644Z,98205.90
2018-12-27T11:28:50.238Z,98196.39
2018-12-27T11:34:10.829Z,98183.53
2018-12-27T11:39:30.260Z,98179.74
2018-12-27T11:44:50.415Z,98168.56
2018-12-27T11:50:10.263Z,98169.59
2018-12-27T11:55:29.529Z,98163.42
2018-12-27T12:00:49.931Z,98154.53
2018-12-27T12:06:09.666Z,98149.13
2018-12-27T12:11:29.958Z,98128.85
2018-12-27T12:16:50.682Z,98127.81
2018-12-27T12:22:11.088Z,98120.43
2018-12-27T12:27:30.581Z,98109.17
2018-12-27T12:32:50.172Z,98106.06
2018-12-27T12:38:10.169Z,98103.48
2018-12-27T12:43:29.881Z,98097.27
2018-12-27T12:48:49.700Z,98098.20
2018-12-27T12:54:10.215Z,98079.33
2018-12-27T12:59:30.653Z,98077.32
2018-12-27T13:04:50.354Z,98062.16
2018-12-27T13:10:10.849Z,98056.03
2018-12-27T13:15:30.468Z,98042.27
2018-12-27T13:20:50.872Z,98031.38
2018-12-27T13:26:09.937Z,98019.80
2018-12-27T13:31:31.487Z,98023.57
2018-12-27T13:36:50.893Z,98009.55
2018-12-27T13:42:10.903Z,98011.82
2018-12-27T13:47:30.674Z,98007.70
2018-12-27T13:52:51.207Z,98005.86
2018-12-27T13:58:10.558Z,97998.17
2018-12-27T14:03:30.280Z,97989.45
2018-12-27T14:08:50.288Z,97993.22
2018-12-27T14:14:10.037Z,97988.00
2018-12-27T14:19:30.092Z,97993.81
2018-12-27T14:24:49.717Z,97995.01
2018-12-27T14:30:10.038Z,98003.78
2018-12-27T14:35:31.547Z,98003.14
2018-12-27T14:40:55.781Z,98019.11
2018-12-27T14:46:15.072Z,98032.81
2018-12-27T14:51:34.666Z,98031.84
2018-12-27T14:56:54.032Z,98037.47
2018-12-27T15:02:13.284Z,98045.56
2018-12-27T15:07:32.578Z,98057.05
2018-12-27T15:12:52.227Z,98066.86
2018-12-27T15:18:11.682Z,98077.19
2018-12-27T15:23:31.031Z,98071.98
2018-12-27T15:28:51.268Z,98060.31
2018-12-27T15:34:11.497Z,98062.95
2018-12-27T15:39:31.520Z,98069.94
2018-12-27T15:44:51.924Z,98073.06
2018-12-27T15:50:11.741Z,98075.43
2018-12-27T15:55:33.457Z,98077.50
2018-12-27T16:00:53.667Z,98071.94
2018-12-27T16:06:14.095Z,98083.14
2018-12-27T16:11:34.613Z,98080.58
2018-12-27T16:16:53.949Z,98077.56
2018-12-27T16:22:13.362Z,98085.16
2018-12-27T16:27:32.952Z,98085.13
2018-12-27T16:33:00.805Z,98080.94
2018-12-27T16:38:20.604Z,98080.25
2018-12-27T16:43:40.680Z,98088.09
2018-12-27T16:49:03.149Z,98090.77
2018-12-27T16:54:23.164Z,98098.72
2018-12-27T16:59:46.740Z,98117.84
2018-12-27T17:05:08.872Z,98118.41
2018-12-27T17:10:28.931Z,98121.38
2018-12-27T17:15:51.267Z,98115.19
2018-12-27T17:21:10.976Z,98115.19
2018-12-27T17:26:31.378Z,98120.02
2018-12-27T17:31:50.615Z,98116.88
2018-12-27T17:37:10.346Z,98114.51
2018-12-27T17:42:30.292Z,98116.24
2018-12-27T17:47:50.837Z,98107.03
2018-12-27T17:53:12.694Z,98123.17
2018-12-27T17:58:33.299Z,98110.05
2018-12-27T18:03:52.915Z,98101.64
2018-12-27T18:09:13.595Z,98114.06
2018-12-27T18:14:36.322Z,98114.06
2018-12-27T18:19:55.483Z,98107.41
2018-12-27T18:25:17.013Z,98109.22
2018-12-27T18:30:37.374Z,98101.33
2018-12-27T18:35:57.600Z,98096.09
2018-12-27T18:41:17.968Z,98096.09
2018-12-27T18:46:39.373Z,98105.20
2018-12-27T18:51:59.586Z,98105.20
2018-12-27T18:57:21.066Z,98109.66
2018-12-27T19:02:42.052Z,98126.27
2018-12-27T19:08:02.382Z,98126.27
2018-12-27T19:13:23.768Z,98112.24
2018-12-27T19:18:47.316Z,98102.37
2018-12-27T19:24:08.055Z,98102.37
2018-12-27T19:29:28.225Z,98108.98
2018-12-27T19:34:49.514Z,98112.16
2018-12-27T19:40:13.955Z,98111.41
2018-12-27T19:45:39.613Z,98111.41
2018-12-27T19:50:59.940Z,98108.89
2018-12-27T19:56:20.821Z,98118.16
2018-12-27T20:01:41.540Z,98116.80
2018-12-27T20:07:02.061Z,98116.41
2018-12-27T20:12:23.439Z,98107.09
2018-12-27T20:17:43.371Z,98117.02
2018-12-27T20:23:05.782Z,98104.73
2018-12-27T20:28:26.726Z,98107.39
2018-12-27T20:33:48.255Z,98108.15
2018-12-27T20:39:08.649Z,98102.89
2018-12-27T20:44:28.474Z,98102.89
2018-12-27T20:49:48.657Z,98104.94
2018-12-27T20:55:08.278Z,98125.52
2018-12-27T21:00:30.094Z,98109.95
2018-12-27T21:05:49.795Z,98117.95
2018-12-27T21:11:10.720Z,98112.99
2018-12-27T21:16:31.153Z,98114.86
2018-12-27T21:21:52.205Z,98108.23
2018-12-27T21:27:12.261Z,98110.87
2018-12-27T21:32:32.136Z,98104.49
2018-12-27T21:37:52.138Z,98100.33
2018-12-27T21:43:14.054Z,98104.93
2018-12-27T21:48:34.399Z,98099.47
2018-12-27T21:53:54.118Z,98096.95
2018-12-27T21:59:13.927Z,98098.24
2018-12-27T22:04:35.138Z,98094.05
2018-12-27T22:09:55.062Z,98091.19
2018-12-27T22:15:16.049Z,98095.83
2018-12-27T22:20:36.851Z,98084.85
2018-12-27T22:25:57.303Z,98085.49
2018-12-27T22:31:17.718Z,98085.49
2018-12-27T22:36:37.776Z,98092.38
2018-12-27T22:41:58.560Z,98085.06
2018-12-27T22:47:18.684Z,98080.67
2018-12-27T22:52:39.513Z,98078.16
2018-12-27T22:57:59.867Z,98074.64
2018-12-27T23:03:19.732Z,98074.13
2018-12-27T23:08:42.982Z,98067.54
2018-12-27T23:13:59.394Z,98062.38
2018-12-27T23:19:18.751Z,98070.11
2018-12-27T23:24:38.324Z,98062.44
2018-12-27T23:29:58.382Z,98061.86
2018-12-27T23:35:17.655Z,98058.69
2018-12-27T23:40:37.823Z,98049.06
2018-12-27T23:45:57.843Z,98059.16
2018-12-27T23:51:17.522Z,98057.43
2018-12-27T23:56:36.755Z,98049.97
